Sandakan Airport
WBKS : now visible

Airfield :











YOU CAN JOIN US ON...

 
LOGIN :

Register | Disclaimer

   EN    FR    IT 

 









Legend :    VFR   Marginal VFR   IFR   Intensive IFR   Very Intensive IFR
Visi :
Ceiling :
>= 8 km
>= 3000ft
5 to 8 km
1000 to 3000 ft
1500m to 5 km
500 to 1000 ft
800 to 1500m
200 to 500 ft
< 800m
< 200 ft
Symbols :   Thunderstorms  Fog  Heavy snow  Heavy precipitations  Wind > 20 kt






- Airport Elevation : 46 ft
- IATA code : SDK


WBKS - Sandakan

CURRENT METAR :
  • 151000Z 09005KT 050V120 9999 FEW016 FEW017CB 29/24 Q1007

EXPIRED METARs :
  • 150900Z 07007KT 020V130 9999 FEW016 FEW017CB 31/24 Q1006
  • 150800Z 06007KT 030V110 9999 FEW016 FEW017CB 31/23 Q1006

TAF TAF WBKS
Valid from the 15 at 06:00 until the 16 at 06:00 UTC


150500Z 1506/1606 06005KT 9999 FEW016
TEMPO 1512/1516 20005KT 4000 TSRA FEW010 FEW015CB SCT035
WBFC FIR / Asia



MET'MAP, your aeronautical weather chart ! - Copyright ORBIFLY December 2007 - Disclaimer

ORBIFLY MET'MAP TEAM :

Programming & Development : Alexandra Zaïnal
Original concept : Baudouin d'Aumeries
Technical & hardware support : Manuel Goepfert
Assistance : Marc-Olivier Méhu




SOURCES & CREDITS :

   NOAA       Earth
Advisory